BHM weather

Birmingham-Shuttlesworth International Airport
Birmingham, Alabama, United States

Public forecast

Using degrees Fahrenheit for public forecast. Weather courtesy of forecast.io.

METAR (pilot weather report)

Retrieved 2019/05/26 13:53 UTC (45 minutes ago):

KBHM 261353Z 27006KT 10SM FEW250 29/19 A3022 RMK AO2 SLP224 T02890189

TAF (pilot weather forecast)

Retrieved 2019/05/26 12:39 UTC (2 hours ago):

TAF KBHM 261137Z 2612/2712 00000KT P6SM SCT250 FM261600 24008KT P6SM FEW050